EZY18KT EGCC-LERS
Flight info
| Callsign | EZY18KT |
|---|---|
| Flight time | 1h 57m |
| Altitude | 39000 |
| Route | SANBA N859 HON UN859 SOPIL DCT BALAN DCT EVPOK DCT NARAK DCT GAI DCT LOMRA DCT ROCAN DCT PUMAL/N0402F230 N31 BERGA |
| Aircraft | A20N/M-SDE2E3FGHIRWXY/LB1 |
Departure
| Time | 2026-05-09 12:26 |
|---|---|
| Airport | Manchester Airport (EGCC) |
Arrival
| Time | 2026-05-09 14:24 |
|---|---|
| Airport | Reus Airport (LERS) |
| Time | Latitude | Longitude | Altitude | Speed | Heading |
|---|---|---|---|---|---|
| 2026-05-09 11:56 | 53.36761 | -2.28769 | 252 ft | 0 kts | 314° |
| 2026-05-09 12:13 | 53.36757 | -2.28763 | 252 ft | 0 kts | 314° |
| 2026-05-09 12:13 | 53.36751 | -2.28752 | 252 ft | 2 kts | 314° |
| 2026-05-09 12:13 | 53.36743 | -2.28738 | 252 ft | 2 kts | 314° |
| 2026-05-09 12:14 | 53.36733 | -2.28721 | 252 ft | 3 kts | 310° |
| 2026-05-09 12:14 | 53.36722 | -2.28699 | 252 ft | 2 kts | 309° |
| 2026-05-09 12:14 | 53.36712 | -2.28676 | 252 ft | 2 kts | 298° |
| 2026-05-09 12:14 | 53.36708 | -2.28661 | 252 ft | 1 kts | 273° |
| 2026-05-09 12:15 | 53.36707 | -2.28651 | 252 ft | 1 kts | 251° |
| 2026-05-09 12:15 | 53.36707 | -2.28649 | 252 ft | 1 kts | 242° |
| 2026-05-09 12:15 | 53.36703 | -2.28656 | 252 ft | 1 kts | 229° |
| 2026-05-09 12:15 | 53.36701 | -2.28659 | 252 ft | 0 kts | 223° |
| 2026-05-09 12:17 | 53.36701 | -2.28660 | 252 ft | 0 kts | 223° |
| 2026-05-09 12:17 | 53.36700 | -2.28661 | 252 ft | 2 kts | 223° |
| 2026-05-09 12:18 | 53.36662 | -2.28722 | 252 ft | 5 kts | 224° |
| 2026-05-09 12:18 | 53.36652 | -2.28737 | 253 ft | 1 kts | 224° |
| 2026-05-09 12:18 | 53.36635 | -2.28761 | 253 ft | 5 kts | 216° |
| 2026-05-09 12:18 | 53.36596 | -2.28771 | 253 ft | 7 kts | 157° |
| 2026-05-09 12:19 | 53.36565 | -2.28696 | 253 ft | 10 kts | 121° |
| 2026-05-09 12:19 | 53.36520 | -2.28611 | 252 ft | 4 kts | 136° |
| 2026-05-09 12:19 | 53.36509 | -2.28593 | 252 ft | 4 kts | 135° |
| 2026-05-09 12:19 | 53.36475 | -2.28538 | 252 ft | 9 kts | 135° |
| 2026-05-09 12:20 | 53.36420 | -2.28447 | 252 ft | 13 kts | 135° |
| 2026-05-09 12:20 | 53.36349 | -2.28326 | 251 ft | 10 kts | 135° |
| 2026-05-09 12:20 | 53.36289 | -2.28227 | 251 ft | 14 kts | 135° |
| 2026-05-09 12:20 | 53.36228 | -2.28121 | 250 ft | 12 kts | 134° |
| 2026-05-09 12:21 | 53.36168 | -2.28020 | 250 ft | 12 kts | 135° |
| 2026-05-09 12:21 | 53.36102 | -2.27909 | 249 ft | 13 kts | 133° |
| 2026-05-09 12:21 | 53.36030 | -2.27832 | 249 ft | 11 kts | 170° |
| 2026-05-09 12:21 | 53.35948 | -2.27843 | 249 ft | 13 kts | 188° |
| 2026-05-09 12:22 | 53.35857 | -2.27813 | 249 ft | 15 kts | 136° |
| 2026-05-09 12:22 | 53.35796 | -2.27702 | 248 ft | 13 kts | 132° |
| 2026-05-09 12:22 | 53.35712 | -2.27627 | 247 ft | 7 kts | 160° |
| 2026-05-09 12:22 | 53.35702 | -2.27621 | 247 ft | 3 kts | 159° |
| 2026-05-09 12:23 | 53.35668 | -2.27585 | 246 ft | 8 kts | 145° |
| 2026-05-09 12:23 | 53.35610 | -2.27510 | 245 ft | 13 kts | 141° |
| 2026-05-09 12:23 | 53.35526 | -2.27396 | 244 ft | 18 kts | 141° |
| 2026-05-09 12:23 | 53.35424 | -2.27258 | 244 ft | 20 kts | 141° |
| 2026-05-09 12:24 | 53.35311 | -2.27197 | 250 ft | 9 kts | 186° |
| 2026-05-09 12:24 | 53.35259 | -2.27212 | 255 ft | 6 kts | 192° |
| 2026-05-09 12:24 | 53.35236 | -2.27220 | 258 ft | 1 kts | 192° |
| 2026-05-09 12:24 | 53.35185 | -2.27238 | 264 ft | 13 kts | 192° |
| 2026-05-09 12:25 | 53.35087 | -2.27274 | 271 ft | 17 kts | 191° |
| 2026-05-09 12:25 | 53.34989 | -2.27366 | 269 ft | 15 kts | 230° |
| 2026-05-09 12:25 | 53.34912 | -2.27527 | 265 ft | 21 kts | 232° |
| 2026-05-09 12:25 | 53.34693 | -2.27981 | 262 ft | 86 kts | 231° |
| 2026-05-09 12:26 | 53.34179 | -2.29039 | 250 ft | 145 kts | 231° |
| 2026-05-09 12:26 | 53.33453 | -2.30531 | 382 ft | 179 kts | 235° |
| 2026-05-09 12:26 | 53.32643 | -2.32253 | 815 ft | 196 kts | 233° |
| 2026-05-09 12:26 | 53.31850 | -2.34116 | 1598 ft | 198 kts | 242° |
| 2026-05-09 12:27 | 53.31564 | -2.36322 | 2355 ft | 196 kts | 277° |
| 2026-05-09 12:27 | 53.31892 | -2.38531 | 3154 ft | 197 kts | 289° |
| 2026-05-09 12:27 | 53.32292 | -2.40725 | 3817 ft | 199 kts | 274° |
| 2026-05-09 12:27 | 53.32005 | -2.42926 | 4453 ft | 199 kts | 238° |
| 2026-05-09 12:28 | 53.30981 | -2.44421 | 5088 ft | 199 kts | 203° |
| 2026-05-09 12:28 | 53.29631 | -2.44959 | 5687 ft | 200 kts | 187° |
| 2026-05-09 12:28 | 53.28227 | -2.45168 | 6097 ft | 208 kts | 184° |
| 2026-05-09 12:28 | 53.26771 | -2.44817 | 6550 ft | 220 kts | 159° |
| 2026-05-09 12:29 | 53.25358 | -2.43536 | 6869 ft | 242 kts | 151° |
| 2026-05-09 12:29 | 53.23824 | -2.42080 | 7283 ft | 265 kts | 152° |
| 2026-05-09 12:29 | 53.22166 | -2.40573 | 8032 ft | 274 kts | 153° |
| 2026-05-09 12:29 | 53.20476 | -2.39070 | 9018 ft | 277 kts | 153° |
| 2026-05-09 12:30 | 53.18744 | -2.37555 | 9714 ft | 283 kts | 153° |
| 2026-05-09 12:30 | 53.16988 | -2.36031 | 10081 ft | 286 kts | 153° |
| 2026-05-09 12:30 | 53.13427 | -2.32944 | 11756 ft | 292 kts | 154° |
| 2026-05-09 12:31 | 53.11610 | -2.31365 | 12604 ft | 297 kts | 154° |
| 2026-05-09 12:31 | 53.07887 | -2.28131 | 14252 ft | 307 kts | 154° |
| 2026-05-09 12:31 | 53.05983 | -2.26477 | 15000 ft | 311 kts | 154° |
| 2026-05-09 12:32 | 53.04052 | -2.24802 | 15745 ft | 315 kts | 154° |
| 2026-05-09 12:32 | 53.02093 | -2.23105 | 16472 ft | 320 kts | 155° |
| 2026-05-09 12:32 | 53.00110 | -2.21388 | 17198 ft | 324 kts | 155° |
| 2026-05-09 12:32 | 52.98119 | -2.19663 | 17928 ft | 327 kts | 155° |
| 2026-05-09 12:33 | 52.96058 | -2.17879 | 18359 ft | 343 kts | 155° |
| 2026-05-09 12:33 | 52.93881 | -2.15997 | 18548 ft | 362 kts | 155° |
| 2026-05-09 12:33 | 52.91588 | -2.14015 | 18724 ft | 381 kts | 154° |
| 2026-05-09 12:33 | 52.89181 | -2.11936 | 18896 ft | 398 kts | 154° |
| 2026-05-09 12:34 | 52.86676 | -2.09774 | 19066 ft | 414 kts | 154° |
| 2026-05-09 12:34 | 52.84069 | -2.07526 | 19229 ft | 429 kts | 154° |
| 2026-05-09 12:34 | 52.81383 | -2.05214 | 19378 ft | 443 kts | 154° |
| 2026-05-09 12:34 | 52.78603 | -2.02824 | 19527 ft | 456 kts | 154° |
| 2026-05-09 12:35 | 52.75779 | -2.00399 | 19996 ft | 458 kts | 154° |
| 2026-05-09 12:35 | 52.72994 | -1.98010 | 21081 ft | 443 kts | 154° |
| 2026-05-09 12:35 | 52.70296 | -1.95700 | 22275 ft | 433 kts | 154° |
| 2026-05-09 12:35 | 52.67633 | -1.93424 | 23087 ft | 430 kts | 154° |
| 2026-05-09 12:36 | 52.64979 | -1.91162 | 23809 ft | 429 kts | 154° |
| 2026-05-09 12:36 | 52.62296 | -1.88881 | 24042 ft | 439 kts | 154° |
| 2026-05-09 12:36 | 52.59546 | -1.86545 | 24179 ft | 450 kts | 154° |
| 2026-05-09 12:36 | 52.56750 | -1.84172 | 24570 ft | 453 kts | 154° |
| 2026-05-09 12:37 | 52.53957 | -1.81801 | 25249 ft | 448 kts | 154° |
| 2026-05-09 12:37 | 52.51206 | -1.79468 | 25987 ft | 442 kts | 154° |
| 2026-05-09 12:37 | 52.48518 | -1.77194 | 26696 ft | 437 kts | 154° |
| 2026-05-09 12:37 | 52.45820 | -1.74915 | 27182 ft | 438 kts | 154° |
| 2026-05-09 12:38 | 52.43081 | -1.72607 | 27297 ft | 447 kts | 154° |
| 2026-05-09 12:38 | 52.40292 | -1.70261 | 27393 ft | 455 kts | 154° |
| 2026-05-09 12:38 | 52.37457 | -1.67886 | 27548 ft | 459 kts | 155° |
| 2026-05-09 12:38 | 52.34531 | -1.65804 | 27894 ft | 456 kts | 161° |
| 2026-05-09 12:39 | 52.32543 | -1.64694 | 28176 ft | 454 kts | 163° |
| 2026-05-09 12:39 | 52.29544 | -1.63144 | 28571 ft | 452 kts | 164° |
| 2026-05-09 12:39 | 52.26550 | -1.61595 | 29002 ft | 449 kts | 163° |
| 2026-05-09 12:39 | 52.23570 | -1.60051 | 29345 ft | 449 kts | 163° |
| 2026-05-09 12:40 | 52.20600 | -1.58509 | 29711 ft | 447 kts | 163° |
| 2026-05-09 12:40 | 52.17642 | -1.56973 | 30088 ft | 445 kts | 163° |
| 2026-05-09 12:40 | 52.14696 | -1.55444 | 30455 ft | 443 kts | 163° |
| 2026-05-09 12:40 | 52.11763 | -1.53924 | 30814 ft | 441 kts | 163° |
| 2026-05-09 12:41 | 52.08844 | -1.52413 | 31180 ft | 439 kts | 163° |
| 2026-05-09 12:41 | 52.05939 | -1.50911 | 31555 ft | 437 kts | 163° |
| 2026-05-09 12:41 | 52.03047 | -1.49419 | 31921 ft | 435 kts | 163° |
| 2026-05-09 12:41 | 52.00157 | -1.47930 | 32157 ft | 436 kts | 163° |
| 2026-05-09 12:42 | 51.97273 | -1.46445 | 32479 ft | 434 kts | 163° |
| 2026-05-09 12:42 | 51.94423 | -1.44981 | 32980 ft | 428 kts | 163° |
| 2026-05-09 12:42 | 51.91585 | -1.43524 | 33339 ft | 426 kts | 163° |
| 2026-05-09 12:42 | 51.88763 | -1.42077 | 33653 ft | 425 kts | 163° |
| 2026-05-09 12:43 | 51.85950 | -1.40637 | 33969 ft | 423 kts | 163° |
| 2026-05-09 12:43 | 51.83142 | -1.39201 | 34233 ft | 423 kts | 163° |
| 2026-05-09 12:43 | 51.80373 | -1.37787 | 34405 ft | 424 kts | 164° |
| 2026-05-09 12:44 | 51.74715 | -1.34904 | 34649 ft | 428 kts | 164° |
| 2026-05-09 12:44 | 51.71868 | -1.33453 | 34820 ft | 428 kts | 164° |
| 2026-05-09 12:44 | 51.69022 | -1.32005 | 35000 ft | 429 kts | 164° |
| 2026-05-09 12:44 | 51.66173 | -1.30557 | 35167 ft | 430 kts | 164° |
| 2026-05-09 12:45 | 51.63318 | -1.29109 | 35330 ft | 430 kts | 164° |
| 2026-05-09 12:45 | 51.60458 | -1.27663 | 35482 ft | 431 kts | 164° |
| 2026-05-09 12:45 | 51.57587 | -1.26215 | 35642 ft | 432 kts | 164° |
| 2026-05-09 12:45 | 51.54722 | -1.24771 | 35760 ft | 433 kts | 164° |
| 2026-05-09 12:46 | 51.51839 | -1.23320 | 35898 ft | 434 kts | 164° |
| 2026-05-09 12:46 | 51.48965 | -1.21772 | 36054 ft | 436 kts | 160° |
| 2026-05-09 12:46 | 51.46182 | -1.19819 | 36202 ft | 437 kts | 157° |
| 2026-05-09 12:46 | 51.43452 | -1.17790 | 36351 ft | 438 kts | 157° |
| 2026-05-09 12:47 | 51.40650 | -1.15713 | 36491 ft | 438 kts | 158° |
| 2026-05-09 12:47 | 51.37916 | -1.13695 | 36621 ft | 439 kts | 158° |
| 2026-05-09 12:47 | 51.35142 | -1.11653 | 36768 ft | 439 kts | 158° |
| 2026-05-09 12:47 | 51.32365 | -1.09614 | 36891 ft | 440 kts | 158° |
| 2026-05-09 12:48 | 51.29577 | -1.07570 | 36973 ft | 441 kts | 158° |
| 2026-05-09 12:48 | 51.26778 | -1.05520 | 37127 ft | 442 kts | 158° |
| 2026-05-09 12:48 | 51.23984 | -1.03478 | 37250 ft | 442 kts | 158° |
| 2026-05-09 12:48 | 51.21181 | -1.01435 | 37375 ft | 442 kts | 158° |
| 2026-05-09 12:49 | 51.18388 | -0.99402 | 37502 ft | 442 kts | 158° |
| 2026-05-09 12:49 | 51.15586 | -0.97365 | 37632 ft | 443 kts | 158° |
| 2026-05-09 12:49 | 51.12780 | -0.95328 | 37747 ft | 443 kts | 158° |
| 2026-05-09 12:49 | 51.09977 | -0.93296 | 37873 ft | 442 kts | 158° |
| 2026-05-09 12:50 | 51.07171 | -0.91264 | 37998 ft | 442 kts | 158° |
| 2026-05-09 12:50 | 51.04374 | -0.89241 | 38103 ft | 443 kts | 158° |
| 2026-05-09 12:50 | 51.01537 | -0.87356 | 38203 ft | 441 kts | 165° |
| 2026-05-09 12:51 | 50.95638 | -0.84698 | 38405 ft | 441 kts | 166° |
| 2026-05-09 12:51 | 50.89764 | -0.82082 | 38600 ft | 441 kts | 166° |
| 2026-05-09 12:52 | 50.83847 | -0.79451 | 38762 ft | 442 kts | 166° |
| 2026-05-09 12:52 | 50.77928 | -0.76826 | 38912 ft | 442 kts | 166° |
| 2026-05-09 12:53 | 50.72003 | -0.74205 | 39028 ft | 442 kts | 166° |
| 2026-05-09 12:53 | 50.66073 | -0.71589 | 39068 ft | 442 kts | 166° |
| 2026-05-09 12:54 | 50.60142 | -0.68981 | 39073 ft | 442 kts | 166° |
| 2026-05-09 12:54 | 50.54208 | -0.66380 | 39072 ft | 443 kts | 166° |
| 2026-05-09 12:55 | 50.48308 | -0.63800 | 39062 ft | 442 kts | 166° |
| 2026-05-09 12:55 | 50.42376 | -0.61214 | 39063 ft | 442 kts | 166° |
| 2026-05-09 12:56 | 50.36429 | -0.58629 | 39065 ft | 444 kts | 166° |
| 2026-05-09 12:56 | 50.30476 | -0.56046 | 39064 ft | 444 kts | 166° |
| 2026-05-09 12:57 | 50.24519 | -0.53469 | 39059 ft | 444 kts | 166° |
| 2026-05-09 12:57 | 50.18599 | -0.50915 | 39047 ft | 444 kts | 166° |
| 2026-05-09 12:58 | 50.12628 | -0.48345 | 39043 ft | 445 kts | 166° |
| 2026-05-09 12:58 | 50.06658 | -0.45782 | 39052 ft | 445 kts | 166° |
| 2026-05-09 12:59 | 50.00682 | -0.43224 | 39046 ft | 445 kts | 166° |
| 2026-05-09 12:59 | 49.94714 | -0.40674 | 39038 ft | 443 kts | 167° |
| 2026-05-09 13:00 | 49.88768 | -0.38141 | 39045 ft | 443 kts | 167° |
| 2026-05-09 13:00 | 49.82858 | -0.35633 | 39031 ft | 443 kts | 167° |
| 2026-05-09 13:01 | 49.76907 | -0.33110 | 39032 ft | 443 kts | 167° |
| 2026-05-09 13:01 | 49.70968 | -0.30598 | 39027 ft | 440 kts | 167° |
| 2026-05-09 13:02 | 49.65053 | -0.28104 | 39019 ft | 441 kts | 167° |
| 2026-05-09 13:02 | 49.59128 | -0.25613 | 39016 ft | 441 kts | 167° |
| 2026-05-09 13:03 | 49.53207 | -0.23129 | 39017 ft | 441 kts | 167° |
| 2026-05-09 13:03 | 49.47314 | -0.20662 | 39014 ft | 436 kts | 167° |
| 2026-05-09 13:04 | 49.41483 | -0.18229 | 39009 ft | 437 kts | 167° |
| 2026-05-09 13:04 | 49.35611 | -0.15784 | 39011 ft | 437 kts | 167° |
| 2026-05-09 13:05 | 49.29737 | -0.13344 | 39002 ft | 436 kts | 167° |
| 2026-05-09 13:05 | 49.23908 | -0.10928 | 39000 ft | 433 kts | 167° |
| 2026-05-09 13:06 | 49.18084 | -0.08522 | 38995 ft | 434 kts | 167° |
| 2026-05-09 13:06 | 49.12259 | -0.06120 | 38993 ft | 433 kts | 167° |
| 2026-05-09 13:07 | 49.06435 | -0.03725 | 38984 ft | 433 kts | 167° |
| 2026-05-09 13:07 | 49.00618 | -0.01338 | 38992 ft | 433 kts | 167° |
| 2026-05-09 13:08 | 48.94847 | 0.01025 | 38982 ft | 431 kts | 167° |
| 2026-05-09 13:08 | 48.89046 | 0.03393 | 38987 ft | 432 kts | 167° |
| 2026-05-09 13:09 | 48.83241 | 0.05758 | 38982 ft | 432 kts | 167° |
| 2026-05-09 13:09 | 48.77433 | 0.08118 | 38980 ft | 431 kts | 167° |
| 2026-05-09 13:10 | 48.71624 | 0.10473 | 38972 ft | 432 kts | 167° |
| 2026-05-09 13:10 | 48.65820 | 0.12821 | 38976 ft | 432 kts | 167° |
| 2026-05-09 13:11 | 48.60031 | 0.15157 | 38974 ft | 430 kts | 167° |
| 2026-05-09 13:11 | 48.54250 | 0.17484 | 38968 ft | 431 kts | 167° |
| 2026-05-09 13:12 | 48.48461 | 0.19809 | 38965 ft | 430 kts | 167° |
| 2026-05-09 13:12 | 48.42675 | 0.22126 | 38956 ft | 430 kts | 167° |
| 2026-05-09 13:13 | 48.36920 | 0.24426 | 38962 ft | 430 kts | 167° |
| 2026-05-09 13:13 | 48.31137 | 0.26732 | 38960 ft | 430 kts | 167° |
| 2026-05-09 13:14 | 48.25347 | 0.29035 | 38956 ft | 430 kts | 167° |
| 2026-05-09 13:16 | 48.02106 | 0.38227 | 38940 ft | 432 kts | 167° |
| 2026-05-09 13:16 | 47.96314 | 0.40504 | 38943 ft | 434 kts | 167° |
| 2026-05-09 13:17 | 47.90475 | 0.42795 | 38932 ft | 433 kts | 167° |
| 2026-05-09 13:17 | 47.84648 | 0.45076 | 38941 ft | 433 kts | 167° |
| 2026-05-09 13:18 | 47.78816 | 0.47353 | 38941 ft | 434 kts | 167° |
| 2026-05-09 13:18 | 47.72961 | 0.49634 | 38948 ft | 435 kts | 167° |
| 2026-05-09 13:19 | 47.67113 | 0.51907 | 38944 ft | 434 kts | 168° |
| 2026-05-09 13:19 | 47.61264 | 0.54175 | 38941 ft | 434 kts | 168° |
| 2026-05-09 13:20 | 47.55413 | 0.56438 | 38940 ft | 435 kts | 168° |
| 2026-05-09 13:20 | 47.49584 | 0.58688 | 38939 ft | 435 kts | 168° |
| 2026-05-09 13:21 | 47.43722 | 0.60945 | 38939 ft | 435 kts | 168° |
| 2026-05-09 13:21 | 47.37869 | 0.63194 | 38932 ft | 435 kts | 168° |
| 2026-05-09 13:22 | 47.32021 | 0.65437 | 38939 ft | 434 kts | 168° |
| 2026-05-09 13:22 | 47.26176 | 0.67671 | 38939 ft | 434 kts | 168° |
| 2026-05-09 13:23 | 47.11627 | 0.73215 | 38938 ft | 431 kts | 168° |
| 2026-05-09 13:24 | 47.05802 | 0.75424 | 38939 ft | 432 kts | 168° |
| 2026-05-09 13:24 | 46.99983 | 0.77627 | 38938 ft | 432 kts | 168° |
| 2026-05-09 13:25 | 46.94167 | 0.79824 | 38941 ft | 431 kts | 168° |
| 2026-05-09 13:26 | 46.85454 | 0.83107 | 38938 ft | 432 kts | 168° |
| 2026-05-09 13:26 | 46.79673 | 0.85280 | 38945 ft | 432 kts | 168° |
| 2026-05-09 13:27 | 46.73849 | 0.87462 | 38939 ft | 432 kts | 169° |
| 2026-05-09 13:27 | 46.68024 | 0.89640 | 38943 ft | 432 kts | 169° |
| 2026-05-09 13:28 | 46.62209 | 0.91810 | 38944 ft | 431 kts | 169° |
| 2026-05-09 13:28 | 46.56391 | 0.93975 | 38932 ft | 431 kts | 169° |
| 2026-05-09 13:29 | 46.50543 | 0.96147 | 38937 ft | 434 kts | 169° |
| 2026-05-09 13:29 | 46.45683 | 0.97949 | 38953 ft | 434 kts | 169° |
| 2026-05-09 13:30 | 46.39827 | 1.00115 | 38939 ft | 434 kts | 169° |
| 2026-05-09 13:30 | 46.33019 | 1.02628 | 38937 ft | 436 kts | 169° |
| 2026-05-09 13:31 | 46.28092 | 1.04442 | 38940 ft | 436 kts | 169° |
| 2026-05-09 13:31 | 46.22257 | 1.06587 | 38950 ft | 436 kts | 169° |
| 2026-05-09 13:32 | 46.16374 | 1.08744 | 38944 ft | 436 kts | 169° |
| 2026-05-09 13:32 | 46.07531 | 1.11978 | 38962 ft | 437 kts | 169° |
| 2026-05-09 13:33 | 46.01635 | 1.14128 | 38962 ft | 436 kts | 169° |
| 2026-05-09 13:33 | 45.95747 | 1.16270 | 38959 ft | 437 kts | 169° |
| 2026-05-09 13:34 | 45.89880 | 1.18400 | 38950 ft | 437 kts | 169° |
| 2026-05-09 13:34 | 45.83961 | 1.20545 | 38965 ft | 439 kts | 169° |
| 2026-05-09 13:35 | 45.78028 | 1.22690 | 38966 ft | 439 kts | 169° |
| 2026-05-09 13:35 | 45.72098 | 1.24829 | 38960 ft | 440 kts | 169° |
| 2026-05-09 13:36 | 45.66165 | 1.26964 | 38951 ft | 439 kts | 169° |
| 2026-05-09 13:36 | 45.60235 | 1.29094 | 38950 ft | 439 kts | 169° |
| 2026-05-09 13:37 | 45.54305 | 1.31218 | 38949 ft | 439 kts | 169° |
| 2026-05-09 13:37 | 45.48409 | 1.33327 | 38947 ft | 440 kts | 169° |
| 2026-05-09 13:38 | 45.42442 | 1.35456 | 38943 ft | 440 kts | 169° |
| 2026-05-09 13:38 | 45.36504 | 1.37570 | 38941 ft | 440 kts | 169° |
| 2026-05-09 13:39 | 45.30597 | 1.39668 | 38945 ft | 440 kts | 169° |
| 2026-05-09 13:39 | 45.24652 | 1.41775 | 38944 ft | 440 kts | 169° |
| 2026-05-09 13:40 | 45.18716 | 1.43875 | 38940 ft | 440 kts | 170° |
| 2026-05-09 13:40 | 45.12771 | 1.45973 | 38938 ft | 440 kts | 169° |
| 2026-05-09 13:41 | 45.06835 | 1.48064 | 38939 ft | 440 kts | 169° |
| 2026-05-09 13:41 | 45.00895 | 1.50152 | 38939 ft | 440 kts | 169° |
| 2026-05-09 13:42 | 44.94954 | 1.52235 | 38948 ft | 440 kts | 170° |
| 2026-05-09 13:42 | 44.89043 | 1.54303 | 38950 ft | 441 kts | 170° |
| 2026-05-09 13:43 | 44.83091 | 1.56383 | 38789 ft | 437 kts | 170° |
| 2026-05-09 13:43 | 44.80146 | 1.57412 | 38604 ft | 434 kts | 170° |
| 2026-05-09 13:43 | 44.77225 | 1.58430 | 38317 ft | 431 kts | 170° |
| 2026-05-09 13:44 | 44.74323 | 1.59439 | 38085 ft | 430 kts | 170° |
| 2026-05-09 13:44 | 44.71417 | 1.60447 | 37872 ft | 430 kts | 170° |
| 2026-05-09 13:44 | 44.68511 | 1.61455 | 37645 ft | 429 kts | 170° |
| 2026-05-09 13:44 | 44.65609 | 1.62462 | 37429 ft | 428 kts | 170° |
| 2026-05-09 13:45 | 44.62726 | 1.63462 | 37211 ft | 426 kts | 170° |
| 2026-05-09 13:45 | 44.59858 | 1.64455 | 36988 ft | 425 kts | 170° |
| 2026-05-09 13:45 | 44.56985 | 1.65448 | 36778 ft | 425 kts | 170° |
| 2026-05-09 13:45 | 44.54110 | 1.66441 | 36568 ft | 424 kts | 170° |
| 2026-05-09 13:46 | 44.51259 | 1.67426 | 36364 ft | 422 kts | 171° |
| 2026-05-09 13:46 | 44.48444 | 1.68398 | 36150 ft | 421 kts | 171° |
| 2026-05-09 13:46 | 44.45605 | 1.69377 | 35962 ft | 420 kts | 171° |
| 2026-05-09 13:46 | 44.42769 | 1.70352 | 35753 ft | 418 kts | 171° |
| 2026-05-09 13:47 | 44.39948 | 1.71322 | 35543 ft | 417 kts | 170° |
| 2026-05-09 13:47 | 44.37644 | 1.72114 | 35380 ft | 416 kts | 170° |
| 2026-05-09 13:47 | 44.34777 | 1.73099 | 35178 ft | 415 kts | 171° |
| 2026-05-09 13:47 | 44.31968 | 1.74064 | 34983 ft | 414 kts | 171° |
| 2026-05-09 13:48 | 44.29168 | 1.74958 | 34788 ft | 411 kts | 173° |
| 2026-05-09 13:48 | 44.26356 | 1.75594 | 34594 ft | 409 kts | 175° |
| 2026-05-09 13:48 | 44.23580 | 1.76197 | 34406 ft | 408 kts | 175° |
| 2026-05-09 13:48 | 44.20788 | 1.76816 | 34206 ft | 407 kts | 175° |
| 2026-05-09 13:49 | 44.17991 | 1.77438 | 34015 ft | 407 kts | 174° |
| 2026-05-09 13:49 | 44.15199 | 1.78058 | 33807 ft | 406 kts | 175° |
| 2026-05-09 13:49 | 44.12405 | 1.78676 | 33582 ft | 408 kts | 175° |
| 2026-05-09 13:49 | 44.09597 | 1.79294 | 33371 ft | 409 kts | 175° |
| 2026-05-09 13:50 | 44.06774 | 1.79916 | 33156 ft | 410 kts | 175° |
| 2026-05-09 13:50 | 44.03948 | 1.80537 | 32942 ft | 412 kts | 175° |
| 2026-05-09 13:50 | 44.01115 | 1.81159 | 32789 ft | 412 kts | 174° |
| 2026-05-09 13:51 | 43.97021 | 1.82057 | 32763 ft | 417 kts | 174° |
| 2026-05-09 13:51 | 43.91274 | 1.82829 | 32763 ft | 414 kts | 179° |
| 2026-05-09 13:52 | 43.85562 | 1.83375 | 32759 ft | 414 kts | 179° |
| 2026-05-09 13:52 | 43.79808 | 1.83932 | 32756 ft | 416 kts | 179° |
| 2026-05-09 13:53 | 43.74030 | 1.84491 | 32756 ft | 416 kts | 179° |
| 2026-05-09 13:53 | 43.68248 | 1.85051 | 32750 ft | 416 kts | 179° |
| 2026-05-09 13:54 | 43.62473 | 1.85609 | 32752 ft | 416 kts | 179° |
| 2026-05-09 13:54 | 43.56689 | 1.86165 | 32743 ft | 417 kts | 179° |
| 2026-05-09 13:55 | 43.50892 | 1.86723 | 32741 ft | 417 kts | 179° |
| 2026-05-09 13:55 | 43.45109 | 1.87279 | 32739 ft | 417 kts | 179° |
| 2026-05-09 13:56 | 43.39319 | 1.87832 | 32731 ft | 416 kts | 178° |
| 2026-05-09 13:56 | 43.33572 | 1.88381 | 32731 ft | 416 kts | 178° |
| 2026-05-09 13:57 | 43.27791 | 1.88934 | 32730 ft | 417 kts | 178° |
| 2026-05-09 13:57 | 43.21999 | 1.89489 | 32727 ft | 416 kts | 178° |
| 2026-05-09 13:58 | 43.16219 | 1.90040 | 32563 ft | 416 kts | 178° |
| 2026-05-09 13:58 | 43.13330 | 1.90316 | 32303 ft | 416 kts | 178° |
| 2026-05-09 13:58 | 43.10437 | 1.90591 | 32037 ft | 418 kts | 178° |
| 2026-05-09 13:59 | 43.07528 | 1.90867 | 31783 ft | 420 kts | 178° |
| 2026-05-09 13:59 | 43.04636 | 1.91143 | 31513 ft | 421 kts | 178° |
| 2026-05-09 13:59 | 43.01716 | 1.91419 | 31256 ft | 422 kts | 178° |
| 2026-05-09 13:59 | 42.98778 | 1.91698 | 30994 ft | 424 kts | 178° |
| 2026-05-09 14:00 | 42.95828 | 1.91977 | 30748 ft | 424 kts | 178° |
| 2026-05-09 14:00 | 42.94836 | 1.92071 | 30662 ft | 424 kts | 178° |
| 2026-05-09 14:00 | 42.89962 | 1.92533 | 30259 ft | 423 kts | 178° |
| 2026-05-09 14:00 | 42.87018 | 1.92811 | 30021 ft | 424 kts | 178° |
| 2026-05-09 14:01 | 42.84068 | 1.93090 | 29755 ft | 424 kts | 178° |
| 2026-05-09 14:01 | 42.81113 | 1.93367 | 29447 ft | 427 kts | 178° |
| 2026-05-09 14:01 | 42.78141 | 1.93646 | 29005 ft | 428 kts | 178° |
| 2026-05-09 14:01 | 42.75165 | 1.93926 | 28571 ft | 429 kts | 178° |
| 2026-05-09 14:02 | 42.72215 | 1.94203 | 28148 ft | 432 kts | 178° |
| 2026-05-09 14:02 | 42.69206 | 1.94485 | 27716 ft | 434 kts | 178° |
| 2026-05-09 14:02 | 42.66192 | 1.94871 | 27288 ft | 435 kts | 174° |
| 2026-05-09 14:02 | 42.63183 | 1.95487 | 26883 ft | 439 kts | 173° |
| 2026-05-09 14:03 | 42.60153 | 1.96109 | 26372 ft | 441 kts | 173° |
| 2026-05-09 14:03 | 42.57109 | 1.96727 | 25860 ft | 443 kts | 173° |
| 2026-05-09 14:03 | 42.54051 | 1.97346 | 25349 ft | 444 kts | 173° |
| 2026-05-09 14:03 | 42.50986 | 1.97963 | 24855 ft | 447 kts | 173° |
| 2026-05-09 14:04 | 42.47904 | 1.98583 | 24367 ft | 449 kts | 173° |
| 2026-05-09 14:04 | 42.44811 | 1.99205 | 23877 ft | 450 kts | 173° |
| 2026-05-09 14:04 | 42.41703 | 1.99830 | 23384 ft | 453 kts | 173° |
| 2026-05-09 14:04 | 42.38579 | 2.00456 | 22812 ft | 455 kts | 173° |
| 2026-05-09 14:05 | 42.35448 | 2.01004 | 22346 ft | 453 kts | 176° |
| 2026-05-09 14:05 | 42.32304 | 2.01379 | 21934 ft | 454 kts | 176° |
| 2026-05-09 14:05 | 42.29173 | 2.01753 | 21742 ft | 446 kts | 176° |
| 2026-05-09 14:05 | 42.26104 | 2.02120 | 21359 ft | 441 kts | 175° |
| 2026-05-09 14:06 | 42.23039 | 2.02452 | 20835 ft | 443 kts | 179° |
| 2026-05-09 14:06 | 42.19955 | 2.02160 | 20332 ft | 447 kts | 189° |
| 2026-05-09 14:06 | 42.16961 | 2.01008 | 20020 ft | 448 kts | 201° |
| 2026-05-09 14:06 | 42.14203 | 1.99074 | 19737 ft | 448 kts | 212° |
| 2026-05-09 14:07 | 42.11811 | 1.96471 | 19353 ft | 436 kts | 221° |
| 2026-05-09 14:07 | 42.09656 | 1.93722 | 18915 ft | 431 kts | 221° |
| 2026-05-09 14:07 | 42.07443 | 1.90909 | 18411 ft | 441 kts | 221° |
| 2026-05-09 14:07 | 42.05200 | 1.88066 | 17861 ft | 444 kts | 221° |
| 2026-05-09 14:08 | 42.02950 | 1.85225 | 17295 ft | 443 kts | 221° |
| 2026-05-09 14:08 | 42.00706 | 1.82395 | 16840 ft | 441 kts | 221° |
| 2026-05-09 14:08 | 41.98463 | 1.79594 | 16425 ft | 438 kts | 219° |
| 2026-05-09 14:08 | 41.95971 | 1.77297 | 16120 ft | 429 kts | 206° |
| 2026-05-09 14:09 | 41.93227 | 1.75842 | 15816 ft | 422 kts | 195° |
| 2026-05-09 14:09 | 41.90418 | 1.74858 | 15325 ft | 411 kts | 192° |
| 2026-05-09 14:09 | 41.87669 | 1.73972 | 14831 ft | 400 kts | 192° |
| 2026-05-09 14:09 | 41.85002 | 1.73091 | 14355 ft | 389 kts | 192° |
| 2026-05-09 14:10 | 41.79906 | 1.71305 | 13380 ft | 373 kts | 193° |
| 2026-05-09 14:10 | 41.77428 | 1.70409 | 12904 ft | 365 kts | 193° |
| 2026-05-09 14:10 | 41.75012 | 1.69527 | 12503 ft | 357 kts | 192° |
| 2026-05-09 14:11 | 41.72634 | 1.68659 | 12095 ft | 350 kts | 193° |
| 2026-05-09 14:11 | 41.70303 | 1.67812 | 11746 ft | 343 kts | 193° |
| 2026-05-09 14:11 | 41.68046 | 1.66988 | 11600 ft | 329 kts | 192° |
| 2026-05-09 14:11 | 41.65886 | 1.66201 | 11490 ft | 316 kts | 192° |
| 2026-05-09 14:12 | 41.63808 | 1.65443 | 11355 ft | 302 kts | 192° |
| 2026-05-09 14:12 | 41.61812 | 1.64721 | 11120 ft | 294 kts | 192° |
| 2026-05-09 14:12 | 41.59850 | 1.64013 | 10771 ft | 291 kts | 193° |
| 2026-05-09 14:12 | 41.57900 | 1.63313 | 10379 ft | 289 kts | 193° |
| 2026-05-09 14:13 | 41.55968 | 1.62611 | 10031 ft | 286 kts | 193° |
| 2026-05-09 14:14 | 41.43758 | 1.58187 | 8422 ft | 230 kts | 192° |
| 2026-05-09 14:15 | 41.42298 | 1.57658 | 8378 ft | 210 kts | 191° |
| 2026-05-09 14:15 | 41.40918 | 1.57157 | 7997 ft | 204 kts | 191° |
| 2026-05-09 14:15 | 41.39547 | 1.56663 | 7519 ft | 204 kts | 190° |
| 2026-05-09 14:15 | 41.38177 | 1.56172 | 7082 ft | 203 kts | 191° |
| 2026-05-09 14:16 | 41.36819 | 1.55689 | 6680 ft | 200 kts | 192° |
| 2026-05-09 14:16 | 41.35476 | 1.55206 | 6182 ft | 201 kts | 190° |
| 2026-05-09 14:16 | 41.34127 | 1.54681 | 5689 ft | 203 kts | 198° |
| 2026-05-09 14:16 | 41.32891 | 1.53898 | 5472 ft | 190 kts | 203° |
| 2026-05-09 14:17 | 41.31721 | 1.53139 | 5143 ft | 184 kts | 203° |
| 2026-05-09 14:17 | 41.30564 | 1.52393 | 4726 ft | 187 kts | 202° |
| 2026-05-09 14:17 | 41.29403 | 1.51651 | 4563 ft | 180 kts | 201° |
| 2026-05-09 14:17 | 41.28234 | 1.50913 | 4735 ft | 193 kts | 203° |
| 2026-05-09 14:18 | 41.27026 | 1.50144 | 4716 ft | 191 kts | 202° |
| 2026-05-09 14:18 | 41.25830 | 1.49381 | 4729 ft | 195 kts | 202° |
| 2026-05-09 14:18 | 41.25024 | 1.48829 | 4718 ft | 198 kts | 208° |
| 2026-05-09 14:18 | 41.24026 | 1.47617 | 4643 ft | 191 kts | 231° |
| 2026-05-09 14:19 | 41.23353 | 1.46090 | 4461 ft | 195 kts | 244° |
| 2026-05-09 14:19 | 41.22831 | 1.44444 | 4409 ft | 192 kts | 248° |
| 2026-05-09 14:19 | 41.22352 | 1.42796 | 4411 ft | 183 kts | 249° |
| 2026-05-09 14:19 | 41.21905 | 1.41273 | 4418 ft | 175 kts | 249° |
| 2026-05-09 14:20 | 41.21461 | 1.39754 | 4396 ft | 180 kts | 248° |
| 2026-05-09 14:20 | 41.21006 | 1.38203 | 4196 ft | 183 kts | 249° |
| 2026-05-09 14:20 | 41.20548 | 1.36639 | 3804 ft | 181 kts | 249° |
| 2026-05-09 14:21 | 41.19641 | 1.33536 | 2939 ft | 178 kts | 248° |
| 2026-05-09 14:21 | 41.19192 | 1.31998 | 2545 ft | 178 kts | 247° |
| 2026-05-09 14:21 | 41.18755 | 1.30502 | 2578 ft | 170 kts | 248° |
| 2026-05-09 14:21 | 41.18327 | 1.29022 | 2522 ft | 172 kts | 248° |
| 2026-05-09 14:22 | 41.17915 | 1.27542 | 2173 ft | 171 kts | 248° |
| 2026-05-09 14:22 | 41.17474 | 1.26062 | 1742 ft | 174 kts | 246° |
| 2026-05-09 14:22 | 41.17018 | 1.24532 | 1215 ft | 179 kts | 249° |
| 2026-05-09 14:22 | 41.16574 | 1.23012 | 941 ft | 172 kts | 249° |
| 2026-05-09 14:23 | 41.16160 | 1.21582 | 637 ft | 163 kts | 249° |
| 2026-05-09 14:23 | 41.15770 | 1.20264 | 456 ft | 144 kts | 249° |
| 2026-05-09 14:23 | 41.15406 | 1.19007 | 363 ft | 150 kts | 250° |
| 2026-05-09 14:23 | 41.15034 | 1.17729 | 251 ft | 143 kts | 249° |
| 2026-05-09 14:24 | 41.14729 | 1.16686 | 240 ft | 78 kts | 249° |
| 2026-05-09 14:24 | 41.14585 | 1.16192 | 238 ft | 35 kts | 249° |
| 2026-05-09 14:24 | 41.14523 | 1.15959 | 237 ft | 10 kts | 265° |
| 2026-05-09 14:24 | 41.14563 | 1.15886 | 238 ft | 11 kts | 338° |
| 2026-05-09 14:25 | 41.14580 | 1.15878 | 238 ft | 1 kts | 340° |
| 2026-05-09 14:25 | 41.14583 | 1.15876 | 238 ft | 1 kts | 340° |
| 2026-05-09 14:25 | 41.14595 | 1.15871 | 239 ft | 0 kts | 340° |
| 2026-05-09 14:25 | 41.14601 | 1.15868 | 239 ft | 2 kts | 340° |
| 2026-05-09 14:26 | 41.14625 | 1.15856 | 239 ft | 5 kts | 340° |
| 2026-05-09 14:26 | 41.14670 | 1.15833 | 239 ft | 9 kts | 338° |
| 2026-05-09 14:26 | 41.14732 | 1.15801 | 239 ft | 0 kts | 339° |